createdAt,value
2019-02-11T00:00:53.452Z,1.72
2019-02-11T00:03:23.163Z,1.75
2019-02-11T00:05:52.942Z,1.75
2019-02-11T00:08:22.545Z,1.72
2019-02-11T00:10:52.081Z,1.67
2019-02-11T00:13:21.635Z,1.63
2019-02-11T00:15:51.272Z,1.61
2019-02-11T00:18:20.905Z,1.56
2019-02-11T00:20:50.630Z,1.51
2019-02-11T00:23:20.228Z,1.49
2019-02-11T00:25:49.870Z,1.47
2019-02-11T00:28:19.522Z,1.45
2019-02-11T00:30:49.081Z,1.49
2019-02-11T00:33:18.691Z,1.51
2019-02-11T00:35:48.369Z,1.53
2019-02-11T00:38:17.950Z,1.54
2019-02-11T00:40:47.568Z,1.55
2019-02-11T00:43:19.168Z,1.53
2019-02-11T00:45:48.539Z,1.49
2019-02-11T00:48:18.314Z,1.47
2019-02-11T00:50:47.958Z,1.49
2019-02-11T00:53:17.634Z,1.43
2019-02-11T00:55:47.211Z,1.43
2019-02-11T00:58:16.759Z,1.43
2019-02-11T01:00:46.308Z,1.42
2019-02-11T01:03:15.871Z,1.39
2019-02-11T01:05:45.415Z,1.35
2019-02-11T01:08:15.116Z,1.35
2019-02-11T01:10:44.791Z,1.39
2019-02-11T01:13:14.354Z,1.44
2019-02-11T01:15:44.105Z,1.46
2019-02-11T01:18:13.653Z,1.49
2019-02-11T01:20:43.329Z,1.54
2019-02-11T01:23:13.047Z,1.51
2019-02-11T01:25:42.592Z,1.51
2019-02-11T01:28:12.252Z,1.47
2019-02-11T01:30:41.836Z,1.51
2019-02-11T01:33:11.317Z,1.54
2019-02-11T01:35:40.978Z,1.53
2019-02-11T01:38:10.512Z,1.56
2019-02-11T01:40:40.045Z,1.54
2019-02-11T01:43:09.687Z,1.58
2019-02-11T01:45:39.237Z,1.71
2019-02-11T01:48:08.897Z,1.78
2019-02-11T01:50:38.508Z,1.92
2019-02-11T01:53:08.122Z,2.05
2019-02-11T01:55:37.719Z,2.12
2019-02-11T01:58:07.275Z,2.22
2019-02-11T02:00:36.836Z,2.31
2019-02-11T02:03:06.409Z,2.42
2019-02-11T02:05:36.221Z,2.42
2019-02-11T02:08:05.797Z,2.35
2019-02-11T02:10:35.479Z,2.26
2019-02-11T02:13:05.091Z,2.26
2019-02-11T02:15:34.797Z,2.09
2019-02-11T02:18:04.560Z,2.09
2019-02-11T02:20:34.218Z,2.06
2019-02-11T02:23:03.763Z,2.03
2019-02-11T02:25:33.422Z,2.03
2019-02-11T02:28:03.065Z,2.04
2019-02-11T02:30:32.701Z,2.14
2019-02-11T02:33:02.224Z,2.15
2019-02-11T02:35:31.812Z,2.19
2019-02-11T02:38:01.563Z,2.17
2019-02-11T02:40:31.298Z,2.15
2019-02-11T02:43:00.837Z,2.14
2019-02-11T02:45:30.532Z,2.11
2019-02-11T02:48:00.303Z,2.13
2019-02-11T02:50:29.893Z,2.14
2019-02-11T02:52:59.526Z,2.13
2019-02-11T02:55:29.073Z,2.16
2019-02-11T02:57:58.736Z,2.13
2019-02-11T03:00:28.371Z,2.16
2019-02-11T03:02:58.051Z,2.17
2019-02-11T03:05:27.770Z,2.16
2019-02-11T03:07:57.377Z,2.17
2019-02-11T03:10:26.919Z,2.03
2019-02-11T03:12:56.637Z,1.99
2019-02-11T03:15:26.233Z,1.93
2019-02-11T03:17:55.836Z,1.91
2019-02-11T03:20:25.529Z,1.90
2019-02-11T03:22:55.234Z,1.88
2019-02-11T03:25:24.830Z,1.89
2019-02-11T03:27:54.374Z,1.94
2019-02-11T03:30:24.022Z,1.92
2019-02-11T03:32:53.756Z,1.95
2019-02-11T03:35:23.459Z,1.94
2019-02-11T03:37:53.110Z,1.93
2019-02-11T03:40:22.651Z,1.85
2019-02-11T03:42:52.296Z,1.84
2019-02-11T03:45:21.948Z,1.84
2019-02-11T03:47:51.594Z,1.79
2019-02-11T03:50:21.251Z,1.84
2019-02-11T03:52:50.927Z,1.84
2019-02-11T03:55:20.731Z,1.84
2019-02-11T03:57:50.376Z,1.88
2019-02-11T04:00:20.150Z,1.95
2019-02-11T04:02:49.760Z,2.01
2019-02-11T04:05:19.504Z,2.10
2019-02-11T04:07:49.078Z,2.22
2019-02-11T04:10:18.627Z,2.33
2019-02-11T04:12:48.247Z,2.43
2019-02-11T04:15:18.006Z,2.50
2019-02-11T04:17:47.610Z,2.59
2019-02-11T04:20:17.338Z,2.65
2019-02-11T04:22:46.837Z,2.62
2019-02-11T04:25:16.394Z,2.63
2019-02-11T04:27:46.073Z,2.60
2019-02-11T04:30:15.658Z,2.56
2019-02-11T04:32:45.277Z,2.56
2019-02-11T04:35:14.872Z,2.53
2019-02-11T04:37:44.437Z,2.50
2019-02-11T04:40:14.113Z,2.51
2019-02-11T04:42:43.692Z,2.56
2019-02-11T04:45:13.339Z,2.54
2019-02-11T04:47:43.026Z,2.58
2019-02-11T04:50:12.724Z,2.58
2019-02-11T04:52:42.236Z,2.58
2019-02-11T04:55:11.822Z,2.58
2019-02-11T04:57:41.391Z,2.57
2019-02-11T05:00:11.071Z,2.55
2019-02-11T05:02:40.688Z,2.62
2019-02-11T05:05:10.577Z,2.53
2019-02-11T05:07:40.222Z,2.53
2019-02-11T05:10:11.467Z,2.50
2019-02-11T05:12:41.266Z,2.43
2019-02-11T05:15:11.094Z,2.36
2019-02-11T05:17:40.638Z,2.40
2019-02-11T05:20:10.525Z,2.54
2019-02-11T05:22:40.107Z,2.59
2019-02-11T05:25:09.917Z,2.63
2019-02-11T05:27:39.493Z,2.55
2019-02-11T05:30:09.558Z,2.50
2019-02-11T05:32:39.130Z,2.45
2019-02-11T05:35:08.872Z,2.50
2019-02-11T05:37:38.419Z,2.50
2019-02-11T05:40:09.358Z,2.38
2019-02-11T05:42:38.979Z,2.30
2019-02-11T05:45:08.803Z,2.27
2019-02-11T05:47:38.463Z,2.23
2019-02-11T05:50:09.139Z,2.21
2019-02-11T05:52:38.848Z,2.19
2019-02-11T05:55:08.467Z,2.20
2019-02-11T05:57:38.055Z,2.28
2019-02-11T06:00:09.098Z,2.39
2019-02-11T06:02:38.641Z,2.51
2019-02-11T06:05:08.678Z,2.65
2019-02-11T06:07:38.339Z,2.77
2019-02-11T06:10:08.361Z,2.88
2019-02-11T06:12:37.974Z,2.89
2019-02-11T06:15:07.956Z,3.10
2019-02-11T06:17:37.679Z,3.33
2019-02-11T06:20:08.231Z,3.57
2019-02-11T06:22:38.029Z,3.81
2019-02-11T06:25:07.680Z,4.09
2019-02-11T06:27:37.377Z,4.28
2019-02-11T06:30:07.455Z,4.56
2019-02-11T06:32:37.082Z,4.82
2019-02-11T06:35:07.348Z,5.09
2019-02-11T06:37:37.933Z,5.18
2019-02-11T06:40:08.799Z,5.32
2019-02-11T06:42:38.565Z,5.43
2019-02-11T06:45:13.009Z,5.36
2019-02-11T06:47:39.515Z,5.33
2019-02-11T06:50:09.709Z,5.45
2019-02-11T06:52:39.462Z,5.51
2019-02-11T06:55:10.144Z,5.64
2019-02-11T06:57:39.756Z,5.75
2019-02-11T07:00:11.193Z,5.87
2019-02-11T07:02:40.764Z,5.81
2019-02-11T07:05:10.403Z,5.88
2019-02-11T07:07:39.977Z,5.97
2019-02-11T07:10:10.008Z,6.06
2019-02-11T07:12:39.645Z,6.11
2019-02-11T07:15:10.773Z,6.07
2019-02-11T07:17:40.451Z,5.97
2019-02-11T07:20:10.052Z,5.89
2019-02-11T07:22:39.765Z,5.82
2019-02-11T07:25:09.404Z,5.71
2019-02-11T07:27:39.097Z,5.64
2019-02-11T07:30:09.640Z,5.76
2019-02-11T07:32:39.259Z,6.14
2019-02-11T07:35:08.939Z,6.55
2019-02-11T07:37:38.684Z,6.88
2019-02-11T07:40:09.101Z,7.30
2019-02-11T07:42:57.458Z,7.62
2019-02-11T07:45:41.716Z,7.77
2019-02-11T07:48:11.242Z,8.14
2019-02-11T07:50:40.882Z,8.52
2019-02-11T07:53:10.521Z,8.87
2019-02-11T07:55:40.202Z,9.08
2019-02-11T07:58:09.750Z,9.35
2019-02-11T08:00:39.419Z,9.67
2019-02-11T08:03:08.981Z,9.90
2019-02-11T08:05:38.533Z,10.06
2019-02-11T08:08:08.076Z,10.36
2019-02-11T08:10:37.628Z,10.56
2019-02-11T08:13:07.282Z,10.89
2019-02-11T08:15:38.595Z,11.33
2019-02-11T08:18:08.250Z,11.71
2019-02-11T08:20:37.872Z,11.91
2019-02-11T08:23:12.964Z,12.18
2019-02-11T08:25:38.821Z,12.20
2019-02-11T08:28:08.490Z,12.08
2019-02-11T08:30:38.227Z,12.17
2019-02-11T08:33:07.767Z,12.09
2019-02-11T08:35:37.450Z,12.01
2019-02-11T08:38:06.983Z,12.17
2019-02-11T08:40:36.623Z,12.38
2019-02-11T08:43:06.266Z,12.66
2019-02-11T08:45:35.848Z,13.09
2019-02-11T08:48:05.682Z,13.25
2019-02-11T08:50:35.268Z,13.39
2019-02-11T08:53:04.861Z,13.50
2019-02-11T08:55:34.415Z,13.57
2019-02-11T08:58:03.981Z,13.56
2019-02-11T09:00:33.595Z,13.38
2019-02-11T09:03:03.229Z,13.25
2019-02-11T09:05:32.995Z,13.20
2019-02-11T09:08:02.617Z,13.36
2019-02-11T09:10:32.146Z,13.54
2019-02-11T09:13:01.855Z,13.86
2019-02-11T09:15:31.436Z,13.91
2019-02-11T09:18:01.001Z,13.71
2019-02-11T09:20:30.643Z,13.93
2019-02-11T09:23:00.301Z,14.21
2019-02-11T09:25:29.976Z,14.61
2019-02-11T09:27:59.549Z,14.67
2019-02-11T09:30:29.192Z,14.36
2019-02-11T09:32:58.892Z,14.11
2019-02-11T09:35:28.466Z,14.28
2019-02-11T09:37:58.115Z,14.35
2019-02-11T09:40:27.642Z,14.57
2019-02-11T09:42:57.277Z,14.71
2019-02-11T09:45:26.940Z,14.85
2019-02-11T09:47:56.663Z,15.05
2019-02-11T09:50:39.239Z,15.80
2019-02-11T09:53:08.860Z,15.90
2019-02-11T09:55:38.484Z,15.86
2019-02-11T09:58:08.086Z,15.93
2019-02-11T10:00:37.795Z,15.83
2019-02-11T10:03:07.416Z,15.77
2019-02-11T10:05:37.103Z,15.82
2019-02-11T10:08:06.775Z,16.07
2019-02-11T10:10:36.532Z,16.43
2019-02-11T10:13:06.085Z,16.67
2019-02-11T10:15:35.772Z,16.83
2019-02-11T10:18:05.482Z,17.04
2019-02-11T10:20:35.001Z,17.23
2019-02-11T10:23:05.014Z,17.76
2019-02-11T10:25:34.538Z,18.33
2019-02-11T10:28:12.620Z,18.75
2019-02-11T10:30:42.394Z,19.70
2019-02-11T10:33:12.009Z,20.09
2019-02-11T10:35:42.465Z,20.51
2019-02-11T10:38:12.248Z,20.83
2019-02-11T10:40:41.800Z,20.57
2019-02-11T10:43:11.414Z,20.34
2019-02-11T10:45:40.961Z,20.56
2019-02-11T10:48:10.680Z,20.03
2019-02-11T10:50:40.272Z,19.69
2019-02-11T10:53:09.820Z,19.76
2019-02-11T10:55:39.507Z,19.79
2019-02-11T10:58:09.225Z,19.61
2019-02-11T11:00:39.204Z,19.60
2019-02-11T11:03:08.825Z,19.99
2019-02-11T11:05:38.502Z,20.08
2019-02-11T11:08:08.107Z,19.61
2019-02-11T11:10:37.867Z,18.83
2019-02-11T11:13:07.440Z,18.34
2019-02-11T11:15:37.069Z,18.09
2019-02-11T11:18:07.203Z,17.83
2019-02-11T11:20:37.014Z,17.64
2019-02-11T11:23:06.748Z,17.81
2019-02-11T11:25:36.291Z,18.33
2019-02-11T11:28:05.841Z,19.71
2019-02-11T11:30:35.513Z,21.08
2019-02-11T11:33:05.281Z,21.79
2019-02-11T11:35:34.854Z,21.75
2019-02-11T11:38:04.467Z,21.13
2019-02-11T11:40:34.430Z,20.77
2019-02-11T11:43:03.995Z,21.18
2019-02-11T11:45:33.603Z,21.58
2019-02-11T11:48:03.359Z,22.25
2019-02-11T11:50:32.941Z,22.70
2019-02-11T11:53:02.457Z,23.24
2019-02-11T11:55:32.102Z,23.40
2019-02-11T11:58:01.756Z,23.96
2019-02-11T12:00:31.297Z,25.04
2019-02-11T12:03:04.197Z,25.08
2019-02-11T12:05:32.342Z,25.00
2019-02-11T12:08:02.046Z,23.93
2019-02-11T12:10:31.727Z,23.30
2019-02-11T12:13:20.561Z,22.47
2019-02-11T12:15:33.097Z,21.63
2019-02-11T12:18:02.658Z,20.93
2019-02-11T12:20:33.677Z,20.15
2019-02-11T12:23:03.663Z,19.71
2019-02-11T12:25:33.262Z,18.97
2019-02-11T12:28:02.910Z,18.47
2019-02-11T12:30:32.625Z,18.31
2019-02-11T12:33:02.178Z,18.31
2019-02-11T12:35:32.165Z,18.12
2019-02-11T12:38:02.228Z,18.01
2019-02-11T12:40:31.880Z,18.06
2019-02-11T12:43:03.754Z,17.84
2019-02-11T12:45:33.755Z,17.82
2019-02-11T12:48:06.028Z,17.83
2019-02-11T12:50:35.559Z,17.92
2019-02-11T12:53:05.115Z,18.05
2019-02-11T12:55:34.652Z,18.15
2019-02-11T12:58:04.335Z,18.29
2019-02-11T13:00:33.927Z,18.34
2019-02-11T13:03:03.756Z,18.27
2019-02-11T13:05:45.138Z,18.21
2019-02-11T13:08:04.784Z,17.78
2019-02-11T13:10:34.509Z,17.89
2019-02-11T13:13:06.631Z,17.96
2019-02-11T13:15:59.102Z,17.85
2019-02-11T13:18:07.180Z,17.76
2019-02-11T13:20:37.163Z,17.52
2019-02-11T13:23:06.776Z,17.44
2019-02-11T13:25:36.460Z,17.20
2019-02-11T13:28:06.068Z,17.11
2019-02-11T13:30:35.721Z,17.08
2019-02-11T13:33:05.280Z,16.97
2019-02-11T13:35:34.916Z,16.79
2019-02-11T13:38:04.692Z,16.81
2019-02-11T13:40:34.308Z,16.85
2019-02-11T13:43:03.926Z,16.70
2019-02-11T13:45:33.570Z,16.65
2019-02-11T13:48:03.236Z,16.64
2019-02-11T13:50:32.873Z,16.55
2019-02-11T13:53:02.437Z,16.51
2019-02-11T13:55:32.190Z,16.51
2019-02-11T13:58:01.881Z,16.44
2019-02-11T14:00:38.048Z,16.31
2019-02-11T14:03:07.902Z,16.07
2019-02-11T14:05:37.551Z,15.92
2019-02-11T14:08:07.137Z,15.93
2019-02-11T14:10:36.841Z,16.00
2019-02-11T14:13:06.669Z,15.93
2019-02-11T14:15:36.219Z,15.85
2019-02-11T14:18:13.240Z,15.80
2019-02-11T14:20:39.316Z,15.74
2019-02-11T14:23:08.912Z,15.60
2019-02-11T14:25:44.923Z,15.42
2019-02-11T14:28:09.873Z,15.38
2019-02-11T14:30:39.506Z,15.28
2019-02-11T14:33:09.168Z,15.10
2019-02-11T14:35:38.805Z,15.03
2019-02-11T14:38:08.516Z,14.91
2019-02-11T14:40:38.153Z,14.68
2019-02-11T14:43:07.908Z,14.54
2019-02-11T14:45:37.754Z,14.48
2019-02-11T14:48:07.311Z,14.29
2019-02-11T14:50:37.042Z,14.18
2019-02-11T14:53:06.658Z,14.07
2019-02-11T14:55:36.508Z,13.93
2019-02-11T14:58:06.251Z,13.81
2019-02-11T15:00:38.038Z,13.55
2019-02-11T15:03:07.718Z,13.46
2019-02-11T15:05:37.275Z,13.36
2019-02-11T15:08:06.852Z,13.25
2019-02-11T15:10:36.580Z,13.20
2019-02-11T15:13:06.261Z,13.13
2019-02-11T15:15:37.774Z,12.97
2019-02-11T15:18:07.106Z,12.97
2019-02-11T15:20:36.753Z,12.85
2019-02-11T15:23:06.373Z,12.77
2019-02-11T15:25:35.993Z,12.71
2019-02-11T15:28:05.643Z,12.56
2019-02-11T15:30:35.317Z,12.43
2019-02-11T15:33:05.023Z,12.28
2019-02-11T15:35:34.597Z,12.14
2019-02-11T15:38:04.111Z,12.04
2019-02-11T15:40:33.669Z,11.97
2019-02-11T15:43:03.372Z,11.91
2019-02-11T15:45:32.925Z,11.86
2019-02-11T15:48:03.684Z,11.78
2019-02-11T15:50:33.267Z,11.79
2019-02-11T15:53:02.881Z,11.66
2019-02-11T15:55:32.445Z,11.65
2019-02-11T15:58:01.996Z,11.56
2019-02-11T16:00:31.734Z,11.46
2019-02-11T16:03:01.383Z,11.46
2019-02-11T16:05:30.954Z,11.36
2019-02-11T16:08:00.522Z,11.43
2019-02-11T16:10:30.088Z,11.37
2019-02-11T16:12:59.697Z,11.44
2019-02-11T16:15:29.357Z,11.40
2019-02-11T16:17:58.983Z,11.40
2019-02-11T16:20:28.633Z,11.46
2019-02-11T16:22:58.266Z,11.52
2019-02-11T16:25:27.910Z,11.49
2019-02-11T16:27:58.053Z,11.58
2019-02-11T16:30:27.729Z,11.68
2019-02-11T16:32:57.268Z,11.66
2019-02-11T16:35:29.175Z,11.69
2019-02-11T16:37:58.739Z,11.73
2019-02-11T16:40:28.634Z,11.79
2019-02-11T16:42:58.186Z,11.80
2019-02-11T16:45:27.806Z,11.73
2019-02-11T16:47:57.487Z,11.69
2019-02-11T16:50:27.033Z,11.71
2019-02-11T16:52:56.618Z,11.80
2019-02-11T16:55:26.214Z,11.80
2019-02-11T16:57:55.776Z,11.77
2019-02-11T17:00:25.315Z,11.79
2019-02-11T17:02:55.071Z,11.79
2019-02-11T17:05:24.650Z,11.81
2019-02-11T17:07:54.210Z,11.85
2019-02-11T17:10:23.851Z,11.82
2019-02-11T17:12:53.579Z,11.83
2019-02-11T17:15:23.147Z,11.82
2019-02-11T17:17:52.725Z,11.79
2019-02-11T17:20:22.286Z,11.80
2019-02-11T17:22:52.003Z,11.84
2019-02-11T17:25:21.648Z,11.79
2019-02-11T17:27:51.271Z,11.82
2019-02-11T17:30:24.931Z,11.79
2019-02-11T17:32:54.628Z,11.81
2019-02-11T17:35:24.228Z,11.82
2019-02-11T17:37:53.854Z,11.87
2019-02-11T17:40:23.389Z,11.87
2019-02-11T17:42:53.984Z,11.84
2019-02-11T17:45:25.125Z,11.80
2019-02-11T17:47:54.761Z,11.76
2019-02-11T17:50:24.386Z,11.82
2019-02-11T17:52:54.647Z,11.87
2019-02-11T17:55:24.212Z,11.89
2019-02-11T17:57:53.830Z,11.87
2019-02-11T18:00:33.719Z,11.92
2019-02-11T18:03:03.275Z,11.90
2019-02-11T18:05:32.875Z,11.85
2019-02-11T18:08:02.477Z,11.93
2019-02-11T18:10:32.226Z,11.94
2019-02-11T18:13:01.971Z,11.93
2019-02-11T18:15:31.532Z,11.85
2019-02-11T18:18:01.156Z,11.88
2019-02-11T18:20:30.812Z,11.87
2019-02-11T18:23:00.367Z,11.87
2019-02-11T18:25:30.013Z,11.75
2019-02-11T18:27:59.650Z,11.81
2019-02-11T18:30:29.226Z,11.82
2019-02-11T18:32:58.766Z,11.80
2019-02-11T18:35:28.406Z,11.80
2019-02-11T18:37:57.998Z,11.78
2019-02-11T18:40:27.594Z,11.76
2019-02-11T18:42:57.162Z,11.67
2019-02-11T18:45:26.722Z,11.73
2019-02-11T18:47:56.280Z,11.71
2019-02-11T18:50:25.990Z,11.73
2019-02-11T18:52:55.726Z,11.75
2019-02-11T18:55:25.503Z,11.75
2019-02-11T18:57:55.072Z,11.73
2019-02-11T19:00:24.627Z,11.51
2019-02-11T19:02:54.240Z,11.36
2019-02-11T19:05:23.814Z,11.24
2019-02-11T19:07:53.486Z,11.17
2019-02-11T19:10:23.086Z,11.19
2019-02-11T19:12:52.659Z,11.15
2019-02-11T19:15:22.247Z,11.15
2019-02-11T19:17:51.805Z,11.18
2019-02-11T19:20:21.404Z,11.08
2019-02-11T19:22:50.939Z,11.02
2019-02-11T19:25:20.648Z,10.92
2019-02-11T19:27:50.292Z,10.81
2019-02-11T19:30:21.587Z,10.70
2019-02-11T19:32:51.155Z,10.71
2019-02-11T19:35:20.728Z,10.58
2019-02-11T19:37:50.378Z,10.64
2019-02-11T19:40:19.920Z,10.62
2019-02-11T19:42:49.511Z,10.64
2019-02-11T19:45:19.904Z,10.68
2019-02-11T19:47:49.486Z,10.70
2019-02-11T19:50:19.074Z,10.69
2019-02-11T19:52:48.653Z,10.73
2019-02-11T19:55:18.186Z,10.75
2019-02-11T19:57:47.800Z,10.79
2019-02-11T20:00:19.784Z,10.89
2019-02-11T20:02:49.767Z,10.89
2019-02-11T20:05:19.436Z,10.83
2019-02-11T20:07:49.042Z,10.86
2019-02-11T20:10:19.221Z,10.86
2019-02-11T20:12:48.900Z,10.80
2019-02-11T20:15:20.231Z,10.89
2019-02-11T20:17:49.957Z,10.96
2019-02-11T20:20:21.467Z,11.01
2019-02-11T20:22:51.085Z,10.93
2019-02-11T20:25:20.682Z,10.96
2019-02-11T20:27:50.296Z,10.98
2019-02-11T20:30:22.319Z,10.97
2019-02-11T20:32:51.875Z,10.97
2019-02-11T20:35:21.512Z,10.98
2019-02-11T20:37:51.091Z,10.99
2019-02-11T20:40:21.996Z,11.05
2019-02-11T20:42:51.730Z,11.06
2019-02-11T20:45:23.661Z,11.10
2019-02-11T20:47:53.309Z,11.10
2019-02-11T20:50:23.040Z,11.19
2019-02-11T20:52:52.625Z,11.24
2019-02-11T20:55:22.217Z,11.21
2019-02-11T20:57:52.962Z,11.15
2019-02-11T21:00:23.699Z,11.18
2019-02-11T21:02:53.339Z,11.18
2019-02-11T21:05:23.121Z,11.17
2019-02-11T21:07:52.859Z,11.27
2019-02-11T21:10:22.544Z,11.20
2019-02-11T21:12:52.151Z,11.27
2019-02-11T21:15:21.792Z,11.27
2019-02-11T21:17:51.359Z,11.18
2019-02-11T21:20:26.819Z,11.23
2019-02-11T21:22:56.364Z,11.12
2019-02-11T21:25:26.056Z,11.10
2019-02-11T21:27:55.735Z,11.04
2019-02-11T21:30:25.339Z,11.09
2019-02-11T21:32:54.895Z,11.23
2019-02-11T21:35:24.521Z,11.27
2019-02-11T21:37:54.172Z,11.41
2019-02-11T21:40:23.811Z,11.44
2019-02-11T21:42:53.411Z,11.38
2019-02-11T21:45:22.989Z,11.40
2019-02-11T21:47:52.624Z,11.35
2019-02-11T21:50:26.703Z,11.30
2019-02-11T21:52:53.589Z,11.24
2019-02-11T21:55:23.157Z,11.26
2019-02-11T21:57:52.694Z,11.24
2019-02-11T22:00:22.378Z,11.18
2019-02-11T22:02:51.983Z,11.07
2019-02-11T22:05:21.621Z,11.10
2019-02-11T22:07:51.195Z,11.05
2019-02-11T22:10:20.832Z,10.97
2019-02-11T22:12:50.408Z,10.90
2019-02-11T22:15:19.975Z,10.82
2019-02-11T22:17:49.593Z,10.80
2019-02-11T22:20:19.639Z,10.76
2019-02-11T22:22:49.261Z,10.70
2019-02-11T22:25:18.827Z,10.61
2019-02-11T22:27:48.369Z,10.52
2019-02-11T22:30:19.654Z,10.49
2019-02-11T22:32:49.317Z,10.51
2019-02-11T22:35:18.940Z,10.63
2019-02-11T22:37:49.314Z,10.81
2019-02-11T22:40:18.973Z,11.15
2019-02-11T22:42:48.566Z,11.28
2019-02-11T22:45:19.858Z,11.38
2019-02-11T22:47:49.421Z,11.42
2019-02-11T22:50:18.988Z,11.47
2019-02-11T22:52:48.642Z,11.49
2019-02-11T22:55:18.337Z,11.70
2019-02-11T22:57:47.960Z,11.81
2019-02-11T23:00:26.103Z,11.82
2019-02-11T23:02:55.704Z,11.86
2019-02-11T23:05:25.268Z,11.82
2019-02-11T23:07:54.891Z,11.86
2019-02-11T23:10:24.451Z,11.82
2019-02-11T23:12:54.022Z,11.79
2019-02-11T23:15:23.656Z,11.71
2019-02-11T23:17:53.270Z,11.64
2019-02-11T23:20:22.928Z,11.64
2019-02-11T23:22:52.542Z,11.58
2019-02-11T23:25:22.230Z,11.69
2019-02-11T23:27:51.855Z,11.77
2019-02-11T23:30:21.503Z,11.82
2019-02-11T23:32:51.203Z,11.95
2019-02-11T23:35:20.728Z,12.08
2019-02-11T23:37:50.413Z,12.21
2019-02-11T23:40:19.985Z,12.26
2019-02-11T23:42:49.728Z,12.28
2019-02-11T23:45:19.508Z,12.29
2019-02-11T23:47:49.123Z,12.29
2019-02-11T23:50:18.832Z,12.27
2019-02-11T23:52:48.637Z,12.29
2019-02-11T23:55:18.175Z,12.21
2019-02-11T23:57:47.713Z,12.15
